Time;durP1;ratioP1;P1;durP2;ratioP2;P2;SDS_P1;SDS_P2;PMS_P1;PMS_P2;Temp;Humidity;BMP_temperature;BMP_pressure;BME280_temperature;BME280_humidity;BME280_pressure;Samples;Min_cycle;Max_cycle;Signal;HPM_P1;HPM_P2
2023/07/08 00:00:09;;;;;;;11.30;4.78;;;;;;;21.11;97.46;101644.59;5023576;28;20041;-77
2023/07/08 00:02:34;;;;;;;11.82;4.97;;;;;;;21.02;97.98;101646.84;5005469;28;20034;-76
2023/07/08 00:05:00;;;;;;;8.07;4.88;;;;;;;21.03;97.83;101642.19;5022495;28;20045;-77
2023/07/08 00:07:25;;;;;;;13.82;5.03;;;;;;;21.02;97.78;101637.78;5021917;28;20033;-77
2023/07/08 00:09:50;;;;;;;14.55;4.97;;;;;;;20.99;97.48;101633.63;5004090;28;20031;-78
2023/07/08 00:12:16;;;;;;;10.10;5.15;;;;;;;20.95;97.51;101634.31;5004159;28;20120;-78
2023/07/08 00:14:41;;;;;;;20.15;4.75;;;;;;;20.96;97.48;101631.34;5004759;28;20034;-77
2023/07/08 00:17:11;;;;;;;11.80;5.00;;;;;;;20.93;97.34;101615.41;5023579;28;20053;-79
2023/07/08 00:19:37;;;;;;;13.07;5.30;;;;;;;20.91;97.51;101627.66;5024420;28;20022;-77
2023/07/08 00:22:08;;;;;;;12.15;5.10;;;;;;;20.90;97.50;101623.22;5022157;28;20064;-77
2023/07/08 00:24:33;;;;;;;11.00;5.38;;;;;;;20.87;97.87;101612.75;5006146;28;20050;-77
2023/07/08 00:26:59;;;;;;;8.82;5.35;;;;;;;20.82;98.21;101625.19;5022170;28;20026;-77
2023/07/08 00:29:24;;;;;;;13.98;5.50;;;;;;;20.80;98.55;101616.41;5021132;28;20033;-78
2023/07/08 00:31:49;;;;;;;9.73;5.25;;;;;;;20.71;99.71;101619.69;5023276;28;20025;-78
2023/07/08 00:34:15;;;;;;;11.18;4.90;;;;;;;20.65;100.00;101629.66;5022893;28;20050;-77
2023/07/08 00:36:41;;;;;;;10.25;5.32;;;;;;;20.63;100.00;101623.56;5022257;28;20030;-77
2023/07/08 00:39:14;;;;;;;11.68;5.47;;;;;;;20.60;100.00;101622.13;5022052;28;20041;-77
2023/07/08 00:41:41;;;;;;;13.20;6.40;;;;;;;20.57;100.00;101628.06;5019098;28;20033;-79
2023/07/08 00:44:10;;;;;;;9.68;5.28;;;;;;;20.54;100.00;101623.06;4999210;28;20029;-77
2023/07/08 00:47:03;;;;;;;14.90;5.65;;;;;;;20.46;100.00;101626.06;5022923;28;20436;-78
2023/07/08 00:49:38;;;;;;;11.68;5.20;;;;;;;20.41;100.00;101619.63;5039568;28;20091;-77
2023/07/08 00:52:25;;;;;;;13.75;5.65;;;;;;;20.37;100.00;101611.84;5023498;28;20129;-77
2023/07/08 00:55:04;;;;;;;9.32;5.15;;;;;;;20.29;100.00;101603.97;5018103;28;20030;-77
2023/07/08 00:57:33;;;;;;;11.02;5.30;;;;;;;20.30;100.00;101607.53;5000311;28;20054;-76
2023/07/08 01:00:04;;;;;;;9.90;5.10;;;;;;;20.27;100.00;101602.53;5019411;28;20382;-79
2023/07/08 01:02:31;;;;;;;13.20;5.22;;;;;;;20.22;100.00;101600.50;4987646;28;20022;-79
2023/07/08 01:05:12;;;;;;;12.90;5.75;;;;;;;20.21;100.00;101590.59;5003321;28;20033;-78
2023/07/08 01:07:38;;;;;;;13.50;5.53;;;;;;;20.17;100.00;101592.16;5003012;28;20026;-78
2023/07/08 01:10:12;;;;;;;8.93;5.38;;;;;;;20.13;100.00;101588.19;4998460;28;20040;-79
2023/07/08 01:12:41;;;;;;;12.02;5.35;;;;;;;20.16;100.00;101587.72;5003384;28;20508;-77
2023/07/08 01:15:08;;;;;;;12.52;5.38;;;;;;;20.17;100.00;101584.78;5015999;28;20030;-77
2023/07/08 01:17:33;;;;;;;9.48;5.53;;;;;;;20.17;100.00;101589.41;4980062;28;20031;-78
2023/07/08 01:20:00;;;;;;;14.73;5.22;;;;;;;20.11;100.00;101596.59;4984371;28;20034;-78
2023/07/08 01:22:32;;;;;;;14.43;5.20;;;;;;;20.09;100.00;101586.94;5014848;28;20108;-79
2023/07/08 01:25:02;;;;;;;13.45;5.45;;;;;;;20.10;100.00;101599.56;5004892;28;20117;-79
2023/07/08 01:27:29;;;;;;;14.95;4.88;;;;;;;20.02;100.00;101592.50;5005362;28;20112;-78
2023/07/08 01:29:55;;;;;;;9.43;4.97;;;;;;;20.05;100.00;101591.22;5004361;28;20104;-78
2023/07/08 01:32:20;;;;;;;17.85;5.20;;;;;;;20.03;100.00;101587.88;5021549;28;20026;-79
2023/07/08 01:34:59;;;;;;;10.05;5.28;;;;;;;20.02;100.00;101595.25;5020793;28;20121;-76
2023/07/08 01:37:46;;;;;;;12.90;5.35;;;;;;;20.00;100.00;101594.63;5022700;28;20038;-76
2023/07/08 01:40:26;;;;;;;10.57;5.05;;;;;;;19.99;100.00;101598.44;5023307;28;20046;-78
2023/07/08 01:42:52;;;;;;;8.18;4.82;;;;;;;19.92;100.00;101592.19;5022276;28;20096;-78
2023/07/08 01:45:19;;;;;;;14.35;5.50;;;;;;;19.89;100.00;101584.44;5022001;28;20033;-78
2023/07/08 01:47:50;;;;;;;9.00;5.53;;;;;;;19.87;100.00;101581.94;5020156;28;20032;-77
2023/07/08 01:50:16;;;;;;;9.60;5.70;;;;;;;19.80;100.00;101572.13;5018099;28;20485;-77
2023/07/08 01:52:41;;;;;;;13.02;5.63;;;;;;;19.76;100.00;101569.03;5018336;28;20029;-79
2023/07/08 01:55:07;;;;;;;13.88;5.25;;;;;;;19.70;100.00;101578.13;5014665;28;20068;-79
2023/07/08 01:57:33;;;;;;;12.23;5.68;;;;;;;19.63;100.00;101577.31;4995041;28;20050;-78
2023/07/08 01:59:58;;;;;;;10.50;5.75;;;;;;;19.62;100.00;101568.28;5014081;28;20376;-78
2023/07/08 02:02:24;;;;;;;11.00;5.50;;;;;;;19.59;100.00;101566.03;5014642;28;20098;-78
2023/07/08 02:04:50;;;;;;;14.07;5.47;;;;;;;19.55;100.00;101558.50;5015691;28;20065;-77
2023/07/08 02:07:15;;;;;;;16.23;5.72;;;;;;;19.51;100.00;101561.66;5015893;28;20056;-78
2023/07/08 02:09:41;;;;;;;13.82;5.85;;;;;;;19.52;100.00;101554.31;5018117;28;20049;-79
2023/07/08 02:12:07;;;;;;;13.73;5.90;;;;;;;19.47;100.00;101552.25;5004401;28;20029;-79
2023/07/08 02:14:32;;;;;;;17.73;5.60;;;;;;;19.42;100.00;101545.78;5007947;28;20099;-77
2023/07/08 02:16:57;;;;;;;13.23;5.40;;;;;;;19.40;100.00;101540.53;5020350;28;20526;-78
2023/07/08 02:19:23;;;;;;;10.88;5.93;;;;;;;19.34;100.00;101546.91;5021411;28;20030;-78
2023/07/08 02:21:49;;;;;;;12.98;5.32;;;;;;;19.35;100.00;101548.56;4991754;28;20517;-77
2023/07/08 02:24:16;;;;;;;12.40;6.35;;;;;;;19.30;100.00;101546.53;5020655;28;20026;-77
2023/07/08 02:26:42;;;;;;;17.05;5.72;;;;;;;19.27;100.00;101554.31;5021796;28;20026;-78
2023/07/08 02:29:07;;;;;;;11.60;5.72;;;;;;;19.25;100.00;101542.78;5021672;28;20073;-77
2023/07/08 02:31:32;;;;;;;13.40;6.28;;;;;;;19.23;100.00;101547.63;5003362;28;20108;-77
2023/07/08 02:33:58;;;;;;;10.60;5.75;;;;;;;19.17;100.00;101543.03;5019705;28;20034;-77
2023/07/08 02:36:23;;;;;;;15.18;6.07;;;;;;;19.19;100.00;101543.66;5023409;28;20034;-78
2023/07/08 02:38:48;;;;;;;14.20;5.93;;;;;;;19.08;100.00;101543.31;5023849;28;20030;-77
2023/07/08 02:41:14;;;;;;;13.45;6.35;;;;;;;19.07;100.00;101547.13;5015927;28;20034;-78
2023/07/08 02:43:39;;;;;;;15.50;6.28;;;;;;;19.07;100.00;101551.75;5021859;28;20025;-79
2023/07/08 02:46:04;;;;;;;16.25;6.60;;;;;;;18.99;100.00;101550.13;5021214;28;20030;-79
2023/07/08 02:48:30;;;;;;;10.30;5.97;;;;;;;19.00;100.00;101538.13;5022157;28;20026;-79
2023/07/08 02:51:03;;;;;;;11.80;5.97;;;;;;;18.98;100.00;101537.50;5015144;28;20038;-79
2023/07/08 02:53:28;;;;;;;12.82;6.30;;;;;;;18.94;100.00;101536.31;5002390;28;20509;-79
2023/07/08 02:55:54;;;;;;;15.57;6.18;;;;;;;18.88;100.00;101526.28;5006865;28;20029;-78
2023/07/08 02:58:19;;;;;;;15.23;7.25;;;;;;;18.85;100.00;101537.59;5020639;28;20050;-76
2023/07/08 03:00:45;;;;;;;12.98;7.05;;;;;;;18.79;100.00;101536.59;5037108;28;20037;-77
2023/07/08 03:03:10;;;;;;;12.07;6.65;;;;;;;18.77;100.00;101541.47;5019236;28;20083;-77
2023/07/08 03:05:35;;;;;;;12.93;6.93;;;;;;;18.76;100.00;101544.41;5017199;28;20052;-78
2023/07/08 03:08:01;;;;;;;13.32;6.30;;;;;;;18.69;100.00;101538.09;5016566;28;20038;-77
2023/07/08 03:10:26;;;;;;;17.52;6.50;;;;;;;18.67;100.00;101534.75;5015533;28;20049;-77
2023/07/08 03:12:52;;;;;;;15.20;6.55;;;;;;;18.66;100.00;101533.91;5016068;28;20022;-77
2023/07/08 03:15:17;;;;;;;13.70;7.10;;;;;;;18.61;100.00;101531.84;5018776;28;20074;-78
2023/07/08 03:17:43;;;;;;;12.35;6.22;;;;;;;18.59;100.00;101531.25;5019869;28;20101;-78
2023/07/08 03:20:10;;;;;;;18.83;7.78;;;;;;;18.53;100.00;101534.00;5018952;28;20044;-79
2023/07/08 03:22:35;;;;;;;12.05;6.45;;;;;;;18.52;100.00;101532.34;5021749;28;20029;-80
2023/07/08 03:25:01;;;;;;;15.88;7.32;;;;;;;18.50;100.00;101527.09;5022532;28;20022;-79
2023/07/08 03:27:26;;;;;;;15.65;6.75;;;;;;;18.42;100.00;101538.25;5004522;28;20038;-79
2023/07/08 03:29:51;;;;;;;23.60;7.55;;;;;;;18.38;100.00;101553.38;5025192;28;20450;-79
2023/07/08 03:32:17;;;;;;;14.95;6.97;;;;;;;18.32;100.00;101544.16;5023878;28;20022;-77
2023/07/08 03:34:42;;;;;;;17.27;7.60;;;;;;;18.31;100.00;101547.13;5026242;28;20362;-79
2023/07/08 03:37:09;;;;;;;15.77;7.78;;;;;;;18.29;100.00;101560.13;5020331;28;20029;-79
2023/07/08 03:39:34;;;;;;;19.50;8.10;;;;;;;18.27;100.00;101551.31;5021071;28;20102;-80
2023/07/08 03:42:00;;;;;;;15.95;7.95;;;;;;;18.23;100.00;101552.81;5021329;28;20030;-79
2023/07/08 03:44:25;;;;;;;14.70;7.68;;;;;;;18.16;100.00;101541.91;5023833;28;20030;-78
2023/07/08 03:46:51;;;;;;;15.43;8.27;;;;;;;18.15;100.00;101553.88;5024714;28;20052;-78
2023/07/08 03:49:22;;;;;;;16.40;7.75;;;;;;;18.12;100.00;101544.25;5024383;28;20053;-78
2023/07/08 03:51:48;;;;;;;15.30;8.23;;;;;;;18.07;100.00;101545.94;5013513;28;20060;-79
2023/07/08 03:54:14;;;;;;;15.93;8.10;;;;;;;18.07;100.00;101541.34;5021169;28;20029;-78
2023/07/08 03:56:39;;;;;;;15.85;8.32;;;;;;;18.08;100.00;101550.34;5024207;28;20053;-77
2023/07/08 03:59:05;;;;;;;18.00;8.07;;;;;;;18.09;100.00;101555.59;5023858;28;20073;-77
2023/07/08 04:01:30;;;;;;;16.60;8.35;;;;;;;18.09;100.00;101554.72;5020777;28;20030;-78
2023/07/08 04:03:57;;;;;;;15.27;8.05;;;;;;;18.09;100.00;101561.03;5021894;28;20341;-77
2023/07/08 04:06:23;;;;;;;20.02;8.45;;;;;;;18.10;100.00;101550.97;5019525;28;20037;-78
2023/07/08 04:08:49;;;;;;;19.77;8.77;;;;;;;17.99;100.00;101549.75;5019669;28;20122;-78
2023/07/08 04:11:17;;;;;;;19.55;8.68;;;;;;;17.98;100.00;101550.78;5020830;28;20042;-77
2023/07/08 04:13:43;;;;;;;17.20;8.35;;;;;;;18.01;100.00;101557.69;5023524;28;20055;-77
2023/07/08 04:16:15;;;;;;;17.42;8.48;;;;;;;18.06;100.00;101555.16;5023667;28;20029;-77
2023/07/08 04:18:40;;;;;;;23.75;9.02;;;;;;;18.06;100.00;101555.16;5000401;28;20026;-76
2023/07/08 04:21:06;;;;;;;18.48;8.60;;;;;;;18.07;100.00;101563.13;4999562;28;20137;-77
2023/07/08 04:23:32;;;;;;;16.90;8.90;;;;;;;18.05;100.00;101557.03;5018675;28;20038;-77
2023/07/08 04:25:57;;;;;;;27.92;9.15;;;;;;;18.01;100.00;101569.44;5014120;28;20045;-77
2023/07/08 04:28:22;;;;;;;19.50;8.57;;;;;;;18.08;100.00;101564.78;5013072;28;20347;-78
2023/07/08 04:30:48;;;;;;;20.60;8.70;;;;;;;18.12;100.00;101560.59;5009103;28;20678;-77
2023/07/08 04:33:14;;;;;;;20.75;9.15;;;;;;;18.08;100.00;101563.94;5015236;28;20489;-79
2023/07/08 04:35:41;;;;;;;19.77;9.75;;;;;;;18.11;100.00;101563.53;4997577;28;20107;-77
2023/07/08 04:38:25;;;;;;;21.88;9.60;;;;;;;18.12;100.00;101571.50;4996469;28;20042;-77
2023/07/08 04:40:52;;;;;;;17.30;8.80;;;;;;;18.13;100.00;101561.44;5017566;28;20492;-77
2023/07/08 04:43:19;;;;;;;20.83;8.90;;;;;;;18.19;100.00;101564.16;5018695;28;20073;-76
2023/07/08 04:45:47;;;;;;;18.23;8.73;;;;;;;18.23;100.00;101560.97;5022142;28;20079;-78
2023/07/08 04:48:14;;;;;;;21.88;10.07;;;;;;;18.24;100.00;101565.38;5014971;28;20060;-77
2023/07/08 04:50:43;;;;;;;20.57;10.03;;;;;;;18.24;100.00;101568.09;5010356;28;20109;-76
2023/07/08 04:53:09;;;;;;;19.77;9.25;;;;;;;18.31;100.00;101560.75;4995127;28;20058;-77
2023/07/08 04:55:43;;;;;;;22.08;9.85;;;;;;;18.37;100.00;101560.69;5001051;28;20049;-77
2023/07/08 04:58:08;;;;;;;20.58;9.00;;;;;;;18.38;100.00;101561.56;5017975;28;20081;-77
2023/07/08 05:00:34;;;;;;;25.45;9.70;;;;;;;18.39;100.00;101557.75;5010227;28;20026;-78
2023/07/08 05:02:59;;;;;;;27.05;10.32;;;;;;;18.40;100.00;101563.00;5014290;28;20489;-78
2023/07/08 05:05:24;;;;;;;20.67;9.85;;;;;;;18.44;100.00;101557.97;5017867;28;20045;-78
2023/07/08 05:07:51;;;;;;;19.30;9.68;;;;;;;18.49;100.00;101554.59;5000821;28;20057;-78
2023/07/08 05:10:16;;;;;;;25.58;10.43;;;;;;;18.48;100.00;101555.63;5000537;28;20029;-79
2023/07/08 05:12:42;;;;;;;24.15;10.05;;;;;;;18.53;100.00;101551.19;5013565;28;20037;-76
2023/07/08 05:15:08;;;;;;;23.50;9.95;;;;;;;18.57;100.00;101557.88;5013204;28;20034;-77
2023/07/08 05:17:34;;;;;;;23.95;9.77;;;;;;;18.63;100.00;101546.09;5017022;28;20361;-77
2023/07/08 05:20:00;;;;;;;22.42;10.43;;;;;;;18.72;100.00;101548.56;5014884;28;20029;-78
2023/07/08 05:22:29;;;;;;;23.55;9.90;;;;;;;18.83;100.00;101551.47;5011474;28;20026;-78
2023/07/08 05:24:57;;;;;;;21.25;9.82;;;;;;;18.86;100.00;101552.94;5016717;28;20038;-78
2023/07/08 05:27:23;;;;;;;24.48;10.40;;;;;;;18.95;100.00;101558.97;5012008;28;20045;-76
2023/07/08 05:29:49;;;;;;;27.10;10.77;;;;;;;18.98;100.00;101553.88;4990716;28;20042;-79
2023/07/08 05:32:15;;;;;;;24.25;10.32;;;;;;;19.00;100.00;101549.06;5008837;28;20026;-77
2023/07/08 05:34:40;;;;;;;22.88;10.40;;;;;;;19.03;100.00;101550.50;4990158;28;20029;-78
2023/07/08 05:37:05;;;;;;;23.85;10.82;;;;;;;19.13;100.00;101550.84;5011257;28;20021;-78
2023/07/08 05:39:31;;;;;;;31.80;10.85;;;;;;;19.22;100.00;101554.13;5012800;28;20125;-78
2023/07/08 05:41:56;;;;;;;29.15;10.50;;;;;;;19.24;100.00;101546.56;5005062;28;20037;-78
2023/07/08 05:44:22;;;;;;;25.73;10.82;;;;;;;19.32;100.00;101542.72;5012919;28;20536;-78
2023/07/08 05:46:48;;;;;;;23.35;10.02;;;;;;;19.41;100.00;101547.69;5017735;28;20026;-77
2023/07/08 05:49:14;;;;;;;27.80;10.02;;;;;;;19.51;100.00;101550.75;5025975;28;20041;-78
2023/07/08 05:51:39;;;;;;;22.05;10.32;;;;;;;19.61;100.00;101549.38;5028345;28;20022;-77
2023/07/08 05:54:05;;;;;;;24.63;10.77;;;;;;;19.70;100.00;101557.09;5018263;28;20030;-78
2023/07/08 05:56:30;;;;;;;23.98;10.05;;;;;;;19.80;100.00;101551.13;5007405;28;20034;-78
2023/07/08 05:58:56;;;;;;;19.95;9.90;;;;;;;19.94;100.00;101546.34;5010505;28;20136;-77
2023/07/08 06:01:21;;;;;;;24.95;9.57;;;;;;;20.03;100.00;101550.44;5015350;28;20466;-78
2023/07/08 06:03:47;;;;;;;23.15;10.50;;;;;;;20.18;100.00;101547.34;5015480;28;20054;-78
2023/07/08 06:06:12;;;;;;;26.70;10.57;;;;;;;20.26;100.00;101536.09;5010642;28;20491;-77
2023/07/08 06:08:37;;;;;;;19.85;9.27;;;;;;;20.33;100.00;101539.59;5010543;28;20537;-78
2023/07/08 06:11:03;;;;;;;25.80;10.68;;;;;;;20.45;100.00;101547.00;5017661;28;20029;-77
2023/07/08 06:13:28;;;;;;;29.08;9.88;;;;;;;20.53;100.00;101544.78;5013780;28;20022;-78
2023/07/08 06:15:53;;;;;;;22.73;10.20;;;;;;;20.60;100.00;101544.72;4998622;28;20069;-78
2023/07/08 06:18:19;;;;;;;24.20;10.30;;;;;;;20.73;100.00;101544.53;4997027;28;20033;-77
2023/07/08 06:20:54;;;;;;;32.67;10.98;;;;;;;20.85;100.00;101541.00;5007311;28;20038;-78
2023/07/08 06:23:19;;;;;;;26.73;10.00;;;;;;;20.92;100.00;101536.28;5016503;28;20053;-78
2023/07/08 06:25:45;;;;;;;21.42;9.80;;;;;;;21.06;100.00;101537.72;5015838;28;20036;-77
2023/07/08 06:28:10;;;;;;;36.35;10.50;;;;;;;21.33;100.00;101542.75;5015896;28;20026;-78
2023/07/08 06:30:36;;;;;;;29.35;10.30;;;;;;;21.63;100.00;101543.53;5011645;28;20018;-77
2023/07/08 06:33:02;;;;;;;31.40;9.30;;;;;;;22.05;100.00;101546.09;5007843;28;20033;-77
2023/07/08 06:35:27;;;;;;;28.85;9.57;;;;;;;22.33;100.00;101539.03;5008150;28;20038;-78
2023/07/08 06:37:52;;;;;;;23.63;10.05;;;;;;;22.55;100.00;101539.19;5001182;28;20830;-78
2023/07/08 06:40:19;;;;;;;21.90;9.63;;;;;;;22.62;100.00;101545.38;5018386;28;20097;-77
2023/07/08 06:42:45;;;;;;;20.60;8.63;;;;;;;22.71;100.00;101554.03;5019705;28;20038;-77
2023/07/08 06:45:11;;;;;;;24.33;9.35;;;;;;;22.72;100.00;101545.56;5020287;28;20489;-78
2023/07/08 06:47:36;;;;;;;22.15;8.48;;;;;;;22.68;100.00;101547.13;5024351;28;20048;-80
2023/07/08 06:50:02;;;;;;;25.38;10.05;;;;;;;22.64;100.00;101542.38;5021221;28;20081;-78
2023/07/08 06:52:33;;;;;;;21.70;9.75;;;;;;;22.65;100.00;101541.31;5020578;28;20041;-78
2023/07/08 06:55:00;;;;;;;20.85;8.90;;;;;;;22.84;100.00;101537.25;5018342;28;20030;-77
2023/07/08 06:57:26;;;;;;;18.40;8.70;;;;;;;23.15;100.00;101535.91;5013821;28;20038;-77
2023/07/08 06:59:51;;;;;;;24.33;8.65;;;;;;;23.47;99.87;101534.50;5015253;28;20030;-78
2023/07/08 07:02:17;;;;;;;16.33;8.98;;;;;;;23.72;98.10;101540.38;5022112;28;20042;-78
2023/07/08 07:04:43;;;;;;;18.42;8.82;;;;;;;24.07;96.79;101530.97;5003341;28;20030;-77
2023/07/08 07:07:09;;;;;;;24.38;8.90;;;;;;;24.82;93.88;101529.34;5007898;28;20034;-78
2023/07/08 07:09:34;;;;;;;23.33;7.80;;;;;;;25.72;89.24;101531.44;5016858;28;20030;-76
2023/07/08 07:11:59;;;;;;;23.35;9.07;;;;;;;26.96;85.37;101539.06;5018565;28;20026;-77
2023/07/08 07:14:25;;;;;;;26.98;8.55;;;;;;;27.48;80.96;101543.53;5022247;28;20036;-77
2023/07/08 07:16:50;;;;;;;27.73;8.10;;;;;;;28.52;76.46;101541.00;5022916;28;20029;-77
2023/07/08 07:19:15;;;;;;;19.67;7.45;;;;;;;28.92;71.34;101533.53;5019365;28;20040;-78
2023/07/08 07:21:41;;;;;;;21.40;7.90;;;;;;;29.67;66.96;101537.88;5015558;28;20033;-77
2023/07/08 07:24:07;;;;;;;18.05;7.82;;;;;;;29.97;64.26;101540.31;5017645;28;20018;-79
2023/07/08 07:26:32;;;;;;;20.65;8.30;;;;;;;30.08;64.02;101531.84;5016429;28;20033;-77
2023/07/08 07:28:58;;;;;;;22.52;8.00;;;;;;;30.50;64.06;101538.53;5015465;28;20084;-78
2023/07/08 07:31:24;;;;;;;20.37;7.90;;;;;;;30.97;61.70;101532.00;5017905;28;20026;-78
2023/07/08 07:33:49;;;;;;;19.87;7.77;;;;;;;30.67;61.80;101535.22;4996675;28;20041;-77
2023/07/08 07:36:14;;;;;;;17.67;7.77;;;;;;;30.65;61.04;101535.53;5015526;28;20030;-78
2023/07/08 07:38:40;;;;;;;20.40;8.17;;;;;;;30.82;59.71;101527.50;5017205;28;20029;-77
2023/07/08 07:41:06;;;;;;;21.13;8.70;;;;;;;31.09;58.84;101525.13;5016226;28;20025;-78
2023/07/08 07:43:33;;;;;;;21.45;9.05;;;;;;;31.48;57.48;101516.41;5016466;28;20076;-77
2023/07/08 07:45:59;;;;;;;18.83;7.53;;;;;;;31.88;57.72;101520.31;5013311;28;20415;-78
2023/07/08 07:48:24;;;;;;;25.23;7.93;;;;;;;32.44;54.70;101509.97;5001183;28;20049;-79
2023/07/08 07:50:51;;;;;;;23.27;9.47;;;;;;;32.02;55.10;101520.38;5016429;28;20476;-78
2023/07/08 07:53:16;;;;;;;29.58;9.30;;;;;;;32.72;52.68;101518.25;5015108;28;20033;-78
2023/07/08 07:55:42;;;;;;;22.63;8.37;;;;;;;32.85;51.89;101514.59;5017893;28;20098;-78
2023/07/08 07:58:07;;;;;;;27.97;9.97;;;;;;;32.95;53.01;101525.50;5012200;28;20057;-77
2023/07/08 08:00:33;;;;;;;30.90;8.70;;;;;;;33.26;50.74;101530.31;5015210;28;20034;-77
2023/07/08 08:02:59;;;;;;;31.37;9.27;;;;;;;32.88;51.67;101525.09;5015437;28;20107;-77
2023/07/08 08:05:24;;;;;;;22.80;9.07;;;;;;;32.16;52.21;101525.09;5014421;28;20117;-77
2023/07/08 08:07:49;;;;;;;35.23;9.73;;;;;;;31.97;51.84;101537.19;5014398;28;20462;-77
2023/07/08 08:10:15;;;;;;;28.10;9.27;;;;;;;32.58;51.05;101549.78;5014358;28;20057;-77
2023/07/08 08:12:41;;;;;;;25.60;9.50;;;;;;;31.95;53.11;101547.78;5015192;28;20041;-78
2023/07/08 08:15:07;;;;;;;23.37;9.23;;;;;;;32.52;52.77;101550.22;5015582;28;20040;-77
2023/07/08 08:17:32;;;;;;;26.30;9.43;;;;;;;33.59;48.28;101550.38;5018672;28;20026;-78
2023/07/08 08:19:57;;;;;;;27.07;9.53;;;;;;;33.43;49.34;101549.94;5017636;28;20028;-78
2023/07/08 08:22:23;;;;;;;25.63;8.80;;;;;;;33.90;46.83;101548.69;5020852;28;20032;-79
2023/07/08 08:24:49;;;;;;;24.30;8.87;;;;;;;33.49;47.32;101541.41;5018652;28;20026;-78
2023/07/08 08:27:14;;;;;;;25.17;9.02;;;;;;;33.90;47.16;101545.91;5020149;28;20465;-79
2023/07/08 08:29:40;;;;;;;26.87;10.07;;;;;;;33.59;47.05;101543.97;5018042;28;20057;-77
2023/07/08 08:32:05;;;;;;;30.00;9.10;;;;;;;32.86;49.15;101540.50;5014106;28;20671;-77
2023/07/08 08:34:31;;;;;;;27.07;9.73;;;;;;;32.35;50.26;101539.69;5015115;28;20033;-79
2023/07/08 08:36:57;;;;;;;28.65;10.52;;;;;;;32.79;48.84;101544.56;5019440;28;20034;-77
2023/07/08 08:39:22;;;;;;;22.67;9.40;;;;;;;34.10;46.01;101548.16;5023974;28;20009;-76
2023/07/08 08:41:53;;;;;;;35.37;12.67;;;;;;;32.53;45.54;101558.25;5028589;28;20081;-77
2023/07/08 08:44:25;;;;;;;27.50;10.52;;;;;;;32.29;47.69;101552.09;4999967;28;20026;-76
2023/07/08 08:47:23;;;;;;;31.58;10.35;;;;;;;33.19;48.04;101546.69;4999366;28;20033;-76
2023/07/08 08:50:00;;;;;;;36.95;11.40;;;;;;;33.25;46.67;101547.38;5003536;28;20034;-76
2023/07/08 08:52:26;;;;;;;25.83;10.93;;;;;;;32.92;46.83;101548.44;5018202;28;20033;-76
2023/07/08 08:54:51;;;;;;;38.73;12.40;;;;;;;32.32;45.81;101551.47;5017041;28;20109;-76
2023/07/08 08:57:25;;;;;;;31.73;10.70;;;;;;;32.84;47.62;101543.63;5016785;28;20038;-76
2023/07/08 08:59:55;;;;;;;26.20;11.30;;;;;;;32.37;49.91;101540.22;4999665;28;20095;-77
2023/07/08 09:02:45;;;;;;;25.60;10.32;;;;;;;32.69;48.64;101538.41;5016220;28;20152;-76
2023/07/08 09:05:11;;;;;;;25.83;10.98;;;;;;;32.25;49.16;101529.59;5016391;28;20022;-76
2023/07/08 09:07:49;;;;;;;29.05;10.55;;;;;;;33.49;48.87;101533.06;5019966;28;20026;-76
2023/07/08 09:10:25;;;;;;;33.55;10.38;;;;;;;34.07;46.52;101526.41;5019345;28;20081;-77
2023/07/08 09:12:51;;;;;;;36.72;10.77;;;;;;;34.89;46.94;101527.50;4997352;28;20128;-77
2023/07/08 09:15:17;;;;;;;31.15;11.70;;;;;;;34.71;41.98;101531.47;4991765;28;20117;-77
2023/07/08 09:17:42;;;;;;;17.80;6.93;;;;;;;34.28;40.99;101535.84;5017008;28;20085;-77
2023/07/08 09:20:24;;;;;;;0.50;0.30;;;;;;;34.26;43.61;101546.53;5018469;28;20084;-77
2023/07/08 09:22:54;;;;;;;0.38;0.00;;;;;;;34.25;45.78;101544.88;5009970;28;20037;-76
2023/07/08 09:25:26;;;;;;;0.00;0.00;;;;;;;34.39;45.93;101550.34;5002281;28;20029;-76
2023/07/08 09:27:52;;;;;;;0.00;0.00;;;;;;;34.36;45.62;101550.97;5019951;28;20033;-77
2023/07/08 09:30:20;;;;;;;0.00;0.00;;;;;;;35.13;44.46;101551.38;5019320;28;20033;-76
2023/07/08 09:32:46;;;;;;;0.10;0.00;;;;;;;35.85;44.94;101558.06;5016469;28;20054;-77
2023/07/08 09:35:18;;;;;;;0.00;0.00;;;;;;;36.16;44.66;101540.13;5016674;28;20030;-76
2023/07/08 09:37:46;;;;;;;0.00;0.00;;;;;;;35.67;43.91;101542.50;5019273;28;20116;-77
2023/07/08 09:40:20;;;;;;;0.00;0.00;;;;;;;36.20;42.13;101536.28;5021257;28;20030;-75
2023/07/08 09:42:52;;;;;;;0.00;0.00;;;;;;;35.45;41.92;101535.97;5023233;28;20056;-77
2023/07/08 09:45:22;;;;;;;0.00;0.00;;;;;;;35.17;42.36;101536.34;5023206;28;20037;-77
2023/07/08 09:47:47;;;;;;;0.00;0.00;;;;;;;34.80;40.71;101529.47;5023640;28;20449;-76
2023/07/08 09:50:25;;;;;;;0.00;0.00;;;;;;;34.57;42.12;101541.94;5006736;28;20092;-77
2023/07/08 09:52:53;;;;;;;0.00;0.00;;;;;;;34.94;41.86;101532.94;5005600;28;20045;-78
2023/07/08 09:55:19;;;;;;;0.00;0.00;;;;;;;34.30;44.80;101535.50;5021239;28;20081;-77
2023/07/08 09:57:49;;;;;;;0.00;0.00;;;;;;;33.94;45.21;101527.34;5020874;28;20497;-77
2023/07/08 10:00:17;;;;;;;0.00;0.00;;;;;;;34.59;44.95;101532.09;5000328;28;20072;-79
2023/07/08 10:02:52;;;;;;;0.00;0.00;;;;;;;35.50;41.85;101523.78;5018986;28;20110;-79
2023/07/08 10:05:22;;;;;;;0.00;0.00;;;;;;;35.95;41.45;101538.06;5001098;28;20043;-77
2023/07/08 10:07:48;;;;;;;0.00;0.00;;;;;;;36.24;40.75;101533.66;5018937;28;20030;-76
2023/07/08 10:10:17;;;;;;;0.00;0.00;;;;;;;36.85;41.83;101533.16;5017347;28;20026;-77
2023/07/08 10:12:52;;;;;;;0.00;0.00;;;;;;;37.18;39.67;101530.41;5002145;28;20105;-76
2023/07/08 10:15:24;;;;;;;0.00;0.00;;;;;;;37.46;40.44;101532.53;5018204;28;20025;-77
2023/07/08 10:17:50;;;;;;;0.00;0.00;;;;;;;37.39;38.88;101541.56;4994687;28;20037;-78
2023/07/08 10:20:15;;;;;;;0.00;0.00;;;;;;;37.31;37.35;101532.06;5018596;28;20034;-77
2023/07/08 10:22:43;;;;;;;0.00;0.00;;;;;;;37.49;38.50;101537.47;5021903;28;20041;-78
2023/07/08 10:25:27;;;;;;;0.00;0.00;;;;;;;37.38;39.77;101536.28;5021446;28;20389;-77
2023/07/08 10:28:08;;;;;;;0.00;0.00;;;;;;;37.85;36.89;101533.88;4999762;28;20125;-78
2023/07/08 10:31:06;;;;;;;0.00;0.00;;;;;;;37.80;37.61;101536.13;5013558;28;20026;-77
2023/07/08 10:33:47;;;;;;;0.00;0.00;;;;;;;37.44;39.21;101540.50;4997237;28;20358;-77
2023/07/08 10:36:24;;;;;;;0.00;0.00;;;;;;;37.30;41.91;101541.63;4979137;28;20026;-77
2023/07/08 10:39:12;;;;;;;0.00;0.00;;;;;;;36.60;41.15;101541.50;4981041;28;20054;-77
2023/07/08 10:42:07;;;;;;;0.00;0.00;;;;;;;36.18;42.73;101534.97;5015910;28;20046;-77
2023/07/08 10:44:44;;;;;;;0.00;0.00;;;;;;;36.66;43.11;101539.28;5010498;28;20472;-77
2023/07/08 10:47:36;;;;;;;0.00;0.00;;;;;;;37.01;43.29;101545.38;4997213;28;20030;-78
2023/07/08 10:50:19;;;;;;;0.00;0.00;;;;;;;37.75;39.39;101548.41;5000289;28;20030;-77
2023/07/08 10:52:59;;;;;;;0.00;0.00;;;;;;;37.77;41.81;101554.50;5016701;28;20041;-78
2023/07/08 10:56:01;;;;;;;0.00;0.00;;;;;;;37.94;39.69;101547.81;5020284;28;20097;-79
2023/07/08 10:58:36;;;;;;;0.00;0.00;;;;;;;36.83;40.46;101552.31;5018238;28;20543;-78
2023/07/08 11:01:31;;;;;;;0.00;0.00;;;;;;;36.78;40.55;101546.94;5020528;28;20031;-79
2023/07/08 11:04:06;;;;;;;0.00;0.00;;;;;;;36.63;41.16;101545.59;5001281;28;20034;-78
2023/07/08 11:06:45;;;;;;;0.00;0.00;;;;;;;36.51;42.32;101537.06;5000917;28;20080;-78
2023/07/08 11:09:15;;;;;;;0.00;0.00;;;;;;;37.50;40.44;101539.16;4999333;28;20049;-79
2023/07/08 11:11:50;;;;;;;0.15;0.00;;;;;;;37.78;41.11;101534.47;5000063;28;20021;-79
2023/07/08 11:14:27;;;;;;;0.00;0.00;;;;;;;37.20;40.30;101539.28;4998106;28;20034;-78
2023/07/08 11:17:16;;;;;;;0.00;0.00;;;;;;;37.18;39.34;101536.00;5016464;28;20041;-77